»·PEaware :: N111LW KMYF-L04

N111LW :: KMYF-L04

FLIGHT INFORMATION

Flight Status: Arrived
Operator: Privately registered:
United States
More flights under this callsign
Pilot: Lee W. (44)
Aircraft: CESSNA 172 SKYHAWK
(C172)
More flights by this aircraft type
Origin: KMYF Montgomery
United States
Destination: L04 Holtville
United States
More flights between these airports :: More routes between these airports
Route: +
File this flight plan on PilotEdge
Remarks:
Altitude:
(Current/Filed)
0ft
Speed:
(Current/Filed)
0kts
Departed: 16-Jul-13 05:29 PM
Arrived: 16-Jul-13 06:52 PM
Distance/Time
Traveled:
94nm/1:23
Distance/Time
To Go:
Arrived

Flight Plot

Page will automatically refresh every two minutes.

Flight plan parsing failed; only flown route is shown


Map Options




Map Legend


Flown Route
Filed Route
Departure Airport
Arrival Airport
Navaid (VOR, NDB)
Fix

Horizontal Profiles

Position Reports

Time Latitude Longitude Heading Altitude Ground
Speed
16-Jul-13 17:24 32.810332 -117.139231 101 430ft 9kts
16-Jul-13 17:25 32.811896 -117.137762 25 430ft 13kts
16-Jul-13 17:26 32.812439 -117.135690 62 430ft 13kts
16-Jul-13 17:27 32.812651 -117.135560 17 430ft 0kts
16-Jul-13 17:28 32.812651 -117.135560 17 430ft 0kts
16-Jul-13 17:29 32.813015 -117.135489 322 430ft 10kts
16-Jul-13 17:30 32.817632 -117.147758 287 652ft 71kts
16-Jul-13 17:31 32.809373 -117.148067 100 981ft 77kts
16-Jul-13 17:32 32.804404 -117.129617 118 1381ft 81kts
16-Jul-13 17:33 32.796030 -117.112868 109 1795ft 79kts
16-Jul-13 17:34 32.790799 -117.093611 105 2186ft 81kts
16-Jul-13 17:35 32.786743 -117.075514 105 2535ft 81kts
16-Jul-13 17:36 32.779804 -117.057421 127 2894ft 82kts
16-Jul-13 17:37 32.770724 -117.039598 92 3265ft 81kts
16-Jul-13 17:38 32.769316 -117.017726 91 3615ft 82kts
16-Jul-13 17:39 32.767894 -116.994347 88 3975ft 83kts
16-Jul-13 17:40 32.764082 -116.969998 112 4244ft 83kts
16-Jul-13 17:41 32.754923 -116.945098 101 4394ft 86kts
16-Jul-13 17:42 32.767557 -116.923427 41 4524ft 87kts
16-Jul-13 17:43 32.785779 -116.906630 35 4669ft 86kts
16-Jul-13 17:44 32.798635 -116.889826 48 4763ft 87kts
16-Jul-13 17:45 32.815255 -116.866713 47 4741ft 96kts
16-Jul-13 17:46 32.832428 -116.842096 55 4708ft 96kts
16-Jul-13 17:47 32.843117 -116.815374 78 5033ft 87kts
16-Jul-13 17:48 32.833927 -116.788806 110 5347ft 89kts
16-Jul-13 17:49 32.826536 -116.761097 93 5663ft 90kts
16-Jul-13 17:50 32.823673 -116.731495 87 5968ft 90kts
16-Jul-13 17:51 32.822641 -116.702328 82 6243ft 91kts
16-Jul-13 17:52 32.823370 -116.672019 90 6518ft 92kts
16-Jul-13 17:53 32.820392 -116.641967 92 6779ft 92kts
16-Jul-13 17:54 32.822412 -116.611575 87 7027ft 92kts
16-Jul-13 17:55 32.824324 -116.581020 86 7258ft 93kts
16-Jul-13 17:56 32.822497 -116.550398 99 7478ft 93kts
16-Jul-13 17:57 32.816215 -116.519303 100 7375ft 102kts
16-Jul-13 17:59 32.812757 -116.474794 94 7273ft 100kts
16-Jul-13 17:59 32.812357 -116.454409 89 7428ft 89kts
16-Jul-13 18:00 32.813101 -116.424860 85 7490ft 96kts
16-Jul-13 18:01 32.816059 -116.391674 81 7372ft 102kts
16-Jul-13 18:02 32.820353 -116.358280 78 7290ft 101kts
16-Jul-13 18:03 32.825246 -116.325688 78 7263ft 101kts
16-Jul-13 18:04 32.832474 -116.294058 68 7361ft 100kts
16-Jul-13 18:05 32.838923 -116.261855 77 7456ft 100kts
16-Jul-13 18:06 32.843055 -116.240250 82 7482ft 101kts
16-Jul-13 18:07 32.843055 -116.240250 82 7482ft 101kts
16-Jul-13 18:08 32.843627 -116.229055 86 7481ft 103kts
16-Jul-13 18:09 32.846063 -116.195547 87 7528ft 103kts
16-Jul-13 18:10 32.847519 -116.160440 86 7471ft 106kts
16-Jul-13 18:11 32.850091 -116.126617 81 7550ft 103kts
16-Jul-13 18:12 32.852314 -116.093897 95 7626ft 102kts
16-Jul-13 18:13 32.852020 -116.060194 93 7691ft 101kts
16-Jul-13 18:14 32.848961 -116.026962 97 7690ft 101kts
16-Jul-13 18:15 32.846307 -115.994178 89 7685ft 101kts
16-Jul-13 18:16 32.843772 -115.963225 102 7683ft 101kts
16-Jul-13 18:17 32.836709 -115.933576 98 7668ft 102kts
16-Jul-13 18:18 32.832328 -115.901220 101 7673ft 101kts
16-Jul-13 18:19 32.824800 -115.869832 101 7670ft 101kts
16-Jul-13 18:20 32.819448 -115.839550 104 7670ft 101kts
16-Jul-13 18:22 32.810030 -115.790223 110 7667ft 101kts
16-Jul-13 18:23 32.796090 -115.752624 115 7224ft 87kts
16-Jul-13 18:24 32.787761 -115.725626 96 6791ft 88kts
16-Jul-13 18:25 32.785910 -115.697949 95 6396ft 88kts
16-Jul-13 18:26 32.784187 -115.674058 91 6066ft 87kts
16-Jul-13 18:27 32.783655 -115.653095 91 5727ft 87kts
16-Jul-13 18:29 32.784197 -115.633118 83 5414ft 86kts
16-Jul-13 18:30 32.785940 -115.610577 84 5064ft 86kts
16-Jul-13 18:31 32.788425 -115.591508 79 4770ft 86kts
16-Jul-13 18:32 32.792302 -115.570896 76 4455ft 85kts
16-Jul-13 18:33 32.798073 -115.548756 70 4228ft 84kts
16-Jul-13 18:34 32.806640 -115.526651 59 4001ft 85kts
16-Jul-13 18:35 32.823264 -115.512126 345 3762ft 80kts
16-Jul-13 18:36 32.843828 -115.521638 334 3446ft 84kts
16-Jul-13 18:37 32.865680 -115.526581 353 3126ft 84kts
16-Jul-13 18:38 32.888131 -115.530382 357 2814ft 83kts
16-Jul-13 18:39 32.911233 -115.529526 359 2418ft 82kts
16-Jul-13 18:40 32.927847 -115.522826 89 1946ft 84kts
16-Jul-13 18:41 32.928392 -115.496774 100 1998ft 81kts
16-Jul-13 18:42 32.919718 -115.472515 119 2095ft 81kts
16-Jul-13 18:43 32.907162 -115.450258 132 2188ft 82kts
16-Jul-13 18:44 32.890333 -115.435233 150 2277ft 82kts
16-Jul-13 18:45 32.877830 -115.418379 105 2333ft 84kts
16-Jul-13 18:46 32.874041 -115.392729 99 2397ft 82kts
16-Jul-13 18:47 32.869009 -115.366812 107 2398ft 82kts
16-Jul-13 18:48 32.859582 -115.343440 126 2209ft 82kts
16-Jul-13 18:49 32.848415 -115.321524 101 1797ft 78kts
16-Jul-13 18:50 32.842883 -115.298168 107 1073ft 70kts
16-Jul-13 18:51 32.837223 -115.277486 97 610ft 65kts
16-Jul-13 18:52 32.837290 -115.256485 61 460ft 65kts
16-Jul-13 18:53 32.847812 -115.265956 265 411ft 69kts
16-Jul-13 18:54 32.843628 -115.282054 156 49ft 8kts
16-Jul-13 18:55 32.844811 -115.278669 108 59ft 12kts

Navigation Log

Ident Type
Flight plan parsing failed, navigation log unavailable